Time;durP1;ratioP1;P1;durP2;ratioP2;P2;SDS_P1;SDS_P2;PMS_P1;PMS_P2;Temp;Humidity;BMP_temperature;BMP_pressure;BME280_temperature;BME280_humidity;BME280_pressure;Samples;Min_cycle;Max_cycle;Signal;HPM_P1;HPM_P2
2022/04/07 00:01:21;;;;;;;27.02;14.80;;;;;;;3.05;94.53;98503.28;1713906;82;20891;-69
2022/04/07 00:03:54;;;;;;;23.20;14.03;;;;;;;2.94;94.44;98496.38;1713639;82;20947;-69
2022/04/07 00:06:23;;;;;;;25.87;15.10;;;;;;;2.87;94.60;98502.19;1680690;84;21058;-70
2022/04/07 00:08:52;;;;;;;25.27;14.05;;;;;;;2.80;94.65;98492.79;1711611;82;20924;-69
2022/04/07 00:11:24;;;;;;;27.02;15.55;;;;;;;2.71;94.82;98493.98;1694284;83;21967;-71
2022/04/07 00:14:00;;;;;;;28.42;13.48;;;;;;;2.66;95.15;98498.11;1653845;83;20946;-71
2022/04/07 00:16:31;;;;;;;29.85;15.10;;;;;;;2.59;95.27;98494.39;1732051;80;20964;-68
2022/04/07 00:19:05;;;;;;;24.92;13.45;;;;;;;2.54;95.38;98487.67;1716206;81;21023;-68
2022/04/07 00:21:42;;;;;;;23.25;13.08;;;;;;;2.49;95.54;98489.09;1714022;82;20926;-68
2022/04/07 00:24:09;;;;;;;27.50;14.28;;;;;;;2.42;95.45;98487.82;1723000;81;21782;-68
2022/04/07 00:26:39;;;;;;;32.28;16.10;;;;;;;2.36;95.76;98493.84;1740535;81;20936;-67
2022/04/07 00:29:09;;;;;;;39.50;16.10;;;;;;;2.31;95.72;98490.64;1743018;81;21432;-67
2022/04/07 00:31:43;;;;;;;35.65;16.50;;;;;;;2.23;95.63;98491.30;1738279;82;20936;-67
2022/04/07 00:34:19;;;;;;;40.58;17.05;;;;;;;2.21;96.06;98493.48;1748930;81;21501;-69
2022/04/07 00:36:47;;;;;;;34.00;15.23;;;;;;;2.18;96.23;98487.83;1744391;82;21585;-68
2022/04/07 00:39:20;;;;;;;37.53;17.23;;;;;;;2.16;96.34;98485.41;1740905;81;20948;-67
2022/04/07 00:41:51;;;;;;;41.40;17.80;;;;;;;2.12;96.42;98484.36;1737254;81;20888;-68
2022/04/07 00:44:22;;;;;;;43.63;18.30;;;;;;;2.06;96.46;98474.68;1699040;83;21067;-67
2022/04/07 00:46:56;;;;;;;42.70;18.25;;;;;;;2.06;96.99;98469.81;1740221;81;20947;-68
2022/04/07 00:49:28;;;;;;;38.98;16.80;;;;;;;2.04;96.86;98469.29;1737308;82;21155;-68
2022/04/07 00:51:58;;;;;;;47.62;19.15;;;;;;;2.01;96.83;98463.90;1745018;81;20882;-68
2022/04/07 00:54:29;;;;;;;43.98;19.17;;;;;;;1.96;96.74;98470.17;1746626;81;21463;-67
2022/04/07 00:57:02;;;;;;;47.60;19.92;;;;;;;1.91;96.74;98462.64;1748327;81;21015;-68
2022/04/07 00:59:32;;;;;;;44.00;18.77;;;;;;;1.88;96.85;98468.63;1744214;81;20945;-68
2022/04/07 01:02:06;;;;;;;42.43;18.02;;;;;;;1.83;97.04;98456.50;1702064;82;21102;-69
2022/04/07 01:04:36;;;;;;;41.90;18.77;;;;;;;1.80;97.16;98453.81;1739834;82;20951;-70
2022/04/07 01:07:08;;;;;;;62.45;23.38;;;;;;;1.77;97.34;98459.80;1741046;82;21522;-71
2022/04/07 01:09:42;;;;;;;60.40;25.88;;;;;;;1.75;97.34;98461.17;1721737;82;20975;-72
2022/04/07 01:12:15;;;;;;;51.80;23.87;;;;;;;1.71;97.43;98466.38;1739632;81;20928;-71
2022/04/07 01:15:03;;;;;;;;;;;;;;;1.68;97.53;98468.29;1749728;82;21235;-71
2022/04/07 01:17:28;;;;;;;57.48;23.67;;;;;;;1.67;97.82;98465.88;1745431;82;20142;-69
2022/04/07 01:20:00;;;;;;;53.73;24.05;;;;;;;1.70;98.47;98462.05;1743036;81;20912;-68
2022/04/07 01:22:35;;;;;;;54.67;23.35;;;;;;;1.75;98.79;98461.17;1741059;81;21409;-70
2022/04/07 01:25:08;;;;;;;45.63;19.07;;;;;;;1.77;98.97;98461.69;1716869;82;21537;-68
2022/04/07 01:27:39;;;;;;;58.02;23.60;;;;;;;1.82;99.31;98458.94;1743089;81;21886;-68
2022/04/07 01:30:13;;;;;;;49.63;24.47;;;;;;;1.85;99.12;98451.61;1741521;82;20852;-68
2022/04/07 01:32:58;;;;;;;54.80;24.67;;;;;;;1.85;98.70;98459.18;1738570;81;20844;-68
2022/04/07 01:35:27;;;;;;;55.65;23.90;;;;;;;1.81;98.49;98460.03;1740979;82;20856;-68
2022/04/07 01:38:00;;;;;;;48.90;24.07;;;;;;;1.79;98.54;98451.39;1726905;81;20887;-69
2022/04/07 01:40:33;;;;;;;50.28;22.75;;;;;;;1.77;98.38;98452.22;1739382;81;21300;-69
2022/04/07 01:43:04;;;;;;;46.53;21.85;;;;;;;1.71;98.17;98451.49;1737054;82;21020;-68
2022/04/07 01:45:33;;;;;;;45.83;21.65;;;;;;;1.67;98.29;98449.64;1742810;82;20967;-68
2022/04/07 01:48:03;;;;;;;43.05;20.68;;;;;;;1.61;98.25;98446.98;1748178;81;20995;-67
2022/04/07 01:50:34;;;;;;;40.63;19.55;;;;;;;1.59;98.46;98447.00;1749129;81;20991;-68
2022/04/07 01:53:01;;;;;;;39.83;19.45;;;;;;;1.56;98.68;98451.63;1741807;81;21182;-68
2022/04/07 01:55:28;;;;;;;35.75;18.32;;;;;;;1.55;98.85;98451.36;1740563;81;20876;-68
2022/04/07 01:57:58;;;;;;;36.45;17.67;;;;;;;1.52;98.99;98455.98;1741179;81;20904;-68
2022/04/07 02:00:30;;;;;;;29.37;14.85;;;;;;;1.52;99.17;98462.20;1732644;81;20975;-69
2022/04/07 02:03:05;;;;;;;28.92;14.05;;;;;;;1.56;100.00;98458.38;1745775;81;21507;-68
2022/04/07 02:05:36;;;;;;;26.07;14.10;;;;;;;1.68;100.00;98456.66;1739880;81;21455;-69
2022/04/07 02:08:08;;;;;;;25.02;12.65;;;;;;;1.82;100.00;98463.81;1741524;81;21093;-68
2022/04/07 02:10:37;;;;;;;27.15;15.18;;;;;;;2.12;100.00;98464.61;1747938;81;20908;-69
2022/04/07 02:13:07;;;;;;;26.02;14.07;;;;;;;2.12;100.00;98464.61;1741979;82;21602;-69
2022/04/07 02:15:41;;;;;;;26.68;14.05;;;;;;;2.15;100.00;98458.62;1743210;81;21534;-69
2022/04/07 02:18:14;;;;;;;28.75;13.93;;;;;;;2.17;100.00;98455.08;1746411;81;21183;-69
2022/04/07 02:20:52;;;;;;;23.02;13.40;;;;;;;2.20;100.00;98462.08;1743724;81;20896;-69
2022/04/07 02:23:27;;;;;;;25.75;13.55;;;;;;;2.18;99.76;98466.17;1737343;81;21158;-69
2022/04/07 02:26:01;;;;;;;26.57;12.98;;;;;;;2.19;99.77;98459.66;1745645;82;20963;-68
2022/04/07 02:28:33;;;;;;;22.58;12.23;;;;;;;2.21;99.85;98456.92;1744859;81;21450;-68
2022/04/07 02:31:03;;;;;;;23.05;13.08;;;;;;;2.25;99.93;98457.97;1745421;81;21424;-68
2022/04/07 02:33:34;;;;;;;21.07;12.35;;;;;;;2.29;99.53;98455.48;1738650;82;21400;-68
2022/04/07 02:36:02;;;;;;;21.45;12.10;;;;;;;2.27;99.07;98453.06;1739249;81;21007;-67
2022/04/07 02:38:36;;;;;;;22.85;12.50;;;;;;;2.26;98.82;98456.06;1737138;81;20935;-69
2022/04/07 02:41:05;;;;;;;25.00;12.25;;;;;;;2.21;98.43;98459.63;1740874;81;21501;-67
2022/04/07 02:43:37;;;;;;;21.87;12.88;;;;;;;2.15;98.03;98452.66;1742088;81;21736;-67
2022/04/07 02:46:04;;;;;;;22.20;12.20;;;;;;;2.08;97.93;98455.44;1737522;82;20916;-67
2022/04/07 02:48:31;;;;;;;19.87;11.43;;;;;;;2.03;98.11;98446.83;1741907;81;21233;-68
2022/04/07 02:51:01;;;;;;;23.42;12.37;;;;;;;2.01;98.31;98446.85;1744914;82;20999;-69
2022/04/07 02:53:28;;;;;;;22.73;12.18;;;;;;;1.97;98.30;98449.33;1742809;81;20996;-67
2022/04/07 02:55:58;;;;;;;26.20;13.40;;;;;;;1.99;99.09;98454.71;1738435;82;21141;-67
2022/04/07 02:58:30;;;;;;;26.57;13.08;;;;;;;2.13;100.00;98448.63;1719751;82;20932;-68
2022/04/07 03:01:01;;;;;;;22.00;12.53;;;;;;;2.24;99.84;98450.12;1737981;82;21530;-68
2022/04/07 03:03:30;;;;;;;22.73;12.53;;;;;;;2.24;98.86;98446.87;1725112;82;21460;-67
2022/04/07 03:06:01;;;;;;;19.73;11.83;;;;;;;2.19;98.20;98453.70;1729063;82;20963;-67
2022/04/07 03:08:32;;;;;;;21.12;12.40;;;;;;;2.16;98.19;98446.70;1736609;82;21257;-67
2022/04/07 03:11:02;;;;;;;20.23;12.03;;;;;;;2.15;98.63;98441.02;1728090;82;21475;-68
2022/04/07 03:13:36;;;;;;;20.05;12.55;;;;;;;2.12;98.27;98437.53;1717282;82;21110;-68
2022/04/07 03:16:10;;;;;;;23.15;11.57;;;;;;;2.04;97.78;98428.69;1720685;82;20991;-68
2022/04/07 03:18:41;;;;;;;180.90;75.12;;;;;;;1.93;97.51;98432.84;1720335;82;20948;-68
2022/04/07 03:21:13;;;;;;;162.15;68.75;;;;;;;1.87;98.66;98429.93;1715867;82;21174;-69
2022/04/07 03:23:44;;;;;;;56.37;26.60;;;;;;;1.96;100.00;98430.92;1725191;82;20948;-66
2022/04/07 03:26:13;;;;;;;45.90;21.90;;;;;;;2.06;100.00;98423.25;1729518;82;21538;-67
2022/04/07 03:28:45;;;;;;;39.08;17.60;;;;;;;2.09;99.47;98424.02;1713720;82;21000;-67
2022/04/07 03:31:16;;;;;;;27.25;14.15;;;;;;;2.10;99.19;98419.41;1701083;82;21048;-68
2022/04/07 03:33:44;;;;;;;25.62;13.95;;;;;;;2.08;98.87;98416.19;1727013;82;21241;-67
2022/04/07 03:36:13;;;;;;;27.02;14.13;;;;;;;2.04;98.88;98416.50;1699421;83;21522;-67
2022/04/07 03:38:41;;;;;;;25.72;13.43;;;;;;;2.01;99.27;98415.17;1737712;82;20928;-68
2022/04/07 03:41:13;;;;;;;25.50;12.73;;;;;;;2.03;99.54;98411.63;1728179;82;20956;-68
2022/04/07 03:43:52;;;;;;;21.75;12.55;;;;;;;2.04;99.58;98415.15;1706929;82;20908;-68
2022/04/07 03:46:24;;;;;;;25.70;14.60;;;;;;;2.05;99.61;98414.06;1724764;82;21218;-70
2022/04/07 03:48:56;;;;;;;23.18;13.30;;;;;;;2.06;99.58;98413.77;1720017;82;21052;-69
2022/04/07 03:51:27;;;;;;;33.33;14.30;;;;;;;2.09;99.80;98416.45;1729214;82;20929;-69
2022/04/07 03:53:57;;;;;;;29.75;14.10;;;;;;;2.08;99.36;98420.25;1718597;82;21024;-69
2022/04/07 03:56:34;;;;;;;24.30;14.00;;;;;;;2.07;99.58;98413.22;1717005;82;21547;-69
2022/04/07 03:59:01;;;;;;;20.90;12.60;;;;;;;2.05;99.37;98416.77;1717775;82;21275;-69
2022/04/07 04:01:34;;;;;;;20.68;11.63;;;;;;;2.04;99.43;98421.38;1723190;82;20980;-69
2022/04/07 04:04:08;;;;;;;20.80;10.48;;;;;;;2.02;99.31;98420.05;1720238;82;20970;-74
2022/04/07 04:06:44;;;;;;;19.85;11.60;;;;;;;2.05;100.00;98421.63;1716803;82;20983;-74
2022/04/07 04:09:16;;;;;;;22.07;12.50;;;;;;;2.19;100.00;98421.75;1704738;82;20884;-68
2022/04/07 04:11:46;;;;;;;22.13;12.20;;;;;;;2.34;100.00;98418.84;1709888;82;20968;-69
2022/04/07 04:14:20;;;;;;;22.17;11.00;;;;;;;2.43;100.00;98425.78;1701689;82;21110;-70
2022/04/07 04:16:55;;;;;;;23.02;10.88;;;;;;;2.54;100.00;98425.36;1728385;82;20928;-70
2022/04/07 04:19:24;;;;;;;20.45;10.25;;;;;;;2.72;100.00;98424.33;1729096;82;21006;-70
2022/04/07 04:21:56;;;;;;;17.50;10.20;;;;;;;2.89;100.00;98411.86;1729464;82;20937;-70
2022/04/07 04:24:24;;;;;;;20.40;11.50;;;;;;;3.20;100.00;98419.00;1708560;82;20934;-71
2022/04/07 04:26:54;;;;;;;23.52;10.20;;;;;;;3.20;100.00;98419.00;1731098;82;21461;-71
2022/04/07 04:29:27;;;;;;;20.95;9.75;;;;;;;3.36;99.80;98417.41;1721172;82;21547;-71
2022/04/07 04:32:01;;;;;;;18.20;10.23;;;;;;;3.51;99.32;98414.41;1728766;82;20991;-70
2022/04/07 04:34:33;;;;;;;17.87;9.55;;;;;;;3.62;98.78;98405.00;1727915;82;21444;-71
2022/04/07 04:37:04;;;;;;;20.50;10.03;;;;;;;3.72;98.42;98410.80;1724211;82;21640;-71
2022/04/07 04:39:35;;;;;;;17.73;9.85;;;;;;;3.84;98.17;98413.84;1723619;82;20975;-69
2022/04/07 04:42:07;;;;;;;21.55;10.68;;;;;;;4.09;97.36;98411.99;1721854;82;20976;-70
2022/04/07 04:44:34;;;;;;;20.68;11.30;;;;;;;4.09;97.36;98411.99;1724184;82;20989;-69
2022/04/07 04:47:06;;;;;;;20.65;10.93;;;;;;;4.23;96.54;98420.16;1714328;82;21036;-69
2022/04/07 04:49:44;;;;;;;25.80;10.40;;;;;;;4.36;95.96;98416.63;1716920;82;21046;-68
2022/04/07 04:52:13;;;;;;;17.73;9.75;;;;;;;4.48;95.68;98425.09;1697232;82;20972;-68
2022/04/07 04:54:43;;;;;;;16.60;9.78;;;;;;;4.71;94.52;98423.78;1725635;82;20939;-68
2022/04/07 04:57:14;;;;;;;18.15;9.83;;;;;;;4.71;94.52;98423.78;1716986;82;21232;-69
2022/04/07 04:59:45;;;;;;;16.85;9.63;;;;;;;4.85;93.86;98425.92;1703949;82;20972;-69
2022/04/07 05:02:14;;;;;;;16.48;10.10;;;;;;;4.98;92.92;98431.89;1722429;82;21546;-70
2022/04/07 05:04:46;;;;;;;21.20;10.32;;;;;;;5.13;92.99;98425.30;1726001;81;21574;-69
2022/04/07 05:07:15;;;;;;;;;;;;;;;5.26;92.17;98427.95;1716887;82;21557;-69
2022/04/07 05:09:43;;;;;;;20.15;9.00;;;;;;;5.46;90.23;98422.58;1730358;82;20100;-68
2022/04/07 05:12:12;;;;;;;15.88;9.30;;;;;;;5.66;90.10;98421.84;1726120;82;21473;-69
2022/04/07 05:14:42;;;;;;;14.15;7.97;;;;;;;5.83;89.33;98417.27;1740095;80;22140;-69
2022/04/07 05:17:13;;;;;;;14.25;8.25;;;;;;;5.98;88.84;98415.30;1696204;82;21633;-67
2022/04/07 05:19:48;;;;;;;13.10;9.25;;;;;;;6.18;87.63;98410.67;1705675;83;21602;-69
2022/04/07 05:22:14;;;;;;;;;;;;;;;6.35;87.92;98416.20;1703991;83;20979;-71
2022/04/07 05:24:43;;;;;;;15.68;9.08;;;;;;;6.50;87.67;98414.38;1702984;83;20149;-69
2022/04/07 05:27:12;;;;;;;16.75;8.60;;;;;;;6.66;85.62;98412.58;1704179;81;21165;-68
2022/04/07 05:29:42;;;;;;;13.43;8.23;;;;;;;6.83;85.34;98417.51;1701548;83;20889;-69
2022/04/07 05:32:12;;;;;;;16.48;8.45;;;;;;;6.98;83.57;98411.33;1713261;83;21134;-68
2022/04/07 05:34:40;;;;;;;15.55;8.75;;;;;;;7.13;82.24;98414.39;1703076;83;20943;-69
2022/04/07 05:37:08;;;;;;;13.70;8.40;;;;;;;7.29;81.42;98418.25;1717882;82;20915;-72
2022/04/07 05:39:37;;;;;;;13.45;7.92;;;;;;;7.44;80.46;98417.52;1698330;84;21197;-73
2022/04/07 05:42:06;;;;;;;12.10;7.00;;;;;;;7.57;78.61;98413.79;1688951;83;21003;-69
2022/04/07 05:44:39;;;;;;;20.10;8.75;;;;;;;7.68;78.15;98415.06;1668938;83;21229;-71
2022/04/07 05:47:08;;;;;;;15.53;8.83;;;;;;;7.77;76.67;98410.95;1705363;83;20904;-69
2022/04/07 05:49:36;;;;;;;17.10;8.28;;;;;;;7.85;76.79;98416.97;1704584;83;21506;-75
2022/04/07 05:52:06;;;;;;;15.18;8.10;;;;;;;7.94;76.93;98417.18;1717038;83;21510;-73
2022/04/07 05:54:36;;;;;;;15.15;8.70;;;;;;;8.03;76.74;98419.89;1702463;83;21491;-69
2022/04/07 05:57:04;;;;;;;17.57;8.65;;;;;;;8.13;76.53;98412.68;1715772;83;21514;-68
2022/04/07 05:59:34;;;;;;;15.60;8.40;;;;;;;8.24;76.16;98407.09;1714668;82;21006;-67
2022/04/07 06:02:05;;;;;;;13.10;8.53;;;;;;;8.36;76.44;98405.06;1699702;83;21579;-69
2022/04/07 06:04:39;;;;;;;15.28;8.25;;;;;;;8.49;76.47;98400.50;1710579;82;21165;-70
2022/04/07 06:07:04;;;;;;;17.77;8.17;;;;;;;8.65;76.00;98402.11;1719207;83;21006;-69
2022/04/07 06:09:35;;;;;;;12.35;7.45;;;;;;;8.83;74.27;98404.95;1710391;83;21547;-69
2022/04/07 06:12:09;;;;;;;10.85;7.62;;;;;;;8.97;73.81;98410.98;1703823;83;20916;-74
2022/04/07 06:14:37;;;;;;;14.47;8.28;;;;;;;9.13;73.50;98419.41;1707493;82;21541;-72
2022/04/07 06:17:07;;;;;;;12.73;7.85;;;;;;;9.28;73.64;98416.84;1711464;83;21507;-71
2022/04/07 06:19:41;;;;;;;12.37;7.40;;;;;;;9.44;73.09;98413.50;1700385;83;20948;-71
2022/04/07 06:22:12;;;;;;;11.38;7.35;;;;;;;9.58;71.79;98403.86;1701813;83;20904;-72
2022/04/07 06:24:41;;;;;;;12.65;7.25;;;;;;;9.73;72.26;98405.17;1695769;83;20999;-69
2022/04/07 06:27:12;;;;;;;12.55;7.15;;;;;;;9.88;71.64;98392.17;1691496;83;21033;-71
2022/04/07 06:29:42;;;;;;;11.83;7.12;;;;;;;10.04;71.02;98395.06;1718221;83;21109;-70
2022/04/07 06:32:13;;;;;;;12.80;7.40;;;;;;;10.17;70.24;98390.41;1703054;83;20968;-68
2022/04/07 06:34:40;;;;;;;11.60;7.08;;;;;;;10.30;69.34;98386.56;1695171;83;21451;-69
2022/04/07 06:37:10;;;;;;;14.40;7.22;;;;;;;10.43;68.47;98377.17;1695392;83;21020;-68
2022/04/07 06:39:43;;;;;;;15.55;6.75;;;;;;;10.55;68.30;98377.17;1722822;82;21048;-67
2022/04/07 06:42:12;;;;;;;14.23;6.00;;;;;;;10.70;67.74;98373.51;1724054;82;21268;-65
2022/04/07 06:44:39;;;;;;;10.40;6.40;;;;;;;10.83;66.38;98369.60;1724130;81;21546;-66
2022/04/07 06:47:09;;;;;;;13.15;7.17;;;;;;;10.93;66.19;98374.62;1722793;81;21006;-67
2022/04/07 06:49:36;;;;;;;10.25;6.85;;;;;;;11.05;65.71;98370.45;1732251;82;20901;-78
2022/04/07 06:52:03;;;;;;;16.42;7.25;;;;;;;11.16;66.08;98364.70;1722220;82;20911;-72
2022/04/07 06:54:32;;;;;;;10.10;6.50;;;;;;;11.34;64.87;98364.41;1723712;82;21533;-72
2022/04/07 06:56:59;;;;;;;10.03;6.25;;;;;;;11.50;64.26;98363.89;1726508;82;20991;-70
2022/04/07 06:59:30;;;;;;;10.55;6.03;;;;;;;11.62;62.42;98361.06;1692646;82;21546;-72
2022/04/07 07:02:02;;;;;;;11.07;6.17;;;;;;;11.66;62.40;98345.47;1710138;82;20992;-70
2022/04/07 07:04:33;;;;;;;9.20;5.67;;;;;;;11.72;62.29;98355.05;1719889;82;20968;-66
2022/04/07 07:07:03;;;;;;;;;;;;;;;11.84;61.27;98349.52;1730007;81;22046;-72
2022/04/07 07:09:34;;;;;;;10.77;5.90;;;;;;;11.98;61.68;98351.05;1701225;82;20072;-75
2022/04/07 07:12:04;;;;;;;8.20;5.62;;;;;;;12.15;60.91;98339.67;1733285;82;20967;-70
2022/04/07 07:14:35;;;;;;;8.60;5.50;;;;;;;12.31;60.18;98338.29;1727598;81;20981;-68
2022/04/07 07:17:06;;;;;;;8.28;5.37;;;;;;;12.46;58.43;98336.90;1723797;82;21539;-70
2022/04/07 07:19:34;;;;;;;13.05;6.00;;;;;;;12.58;58.15;98336.00;1695692;82;21244;-70
2022/04/07 07:22:04;;;;;;;9.05;5.97;;;;;;;12.70;58.55;98334.51;1721149;81;20900;-68
2022/04/07 07:24:37;;;;;;;10.15;5.20;;;;;;;12.84;58.15;98338.13;1734433;82;20996;-71
2022/04/07 07:27:07;;;;;;;10.15;5.92;;;;;;;12.98;57.39;98334.31;1723677;82;21511;-69
2022/04/07 07:29:34;;;;;;;9.45;5.40;;;;;;;13.15;57.60;98329.77;1717886;82;21004;-69
2022/04/07 07:32:01;;;;;;;10.55;5.40;;;;;;;13.39;56.71;98332.02;1721587;82;21102;-68
2022/04/07 07:34:30;;;;;;;9.50;5.85;;;;;;;13.70;56.37;98335.98;1670746;82;21540;-68
2022/04/07 07:36:56;;;;;;;11.05;5.40;;;;;;;14.11;54.87;98329.40;1708988;82;21399;-68
2022/04/07 07:39:25;;;;;;;9.68;6.20;;;;;;;14.42;53.24;98328.36;1730643;82;20952;-71
2022/04/07 07:41:52;;;;;;;10.82;5.80;;;;;;;14.69;53.73;98323.63;1732236;82;21071;-71
2022/04/07 07:44:19;;;;;;;9.20;6.55;;;;;;;15.07;52.90;98326.69;1722938;82;21129;-68
2022/04/07 07:46:46;;;;;;;11.33;5.78;;;;;;;15.39;52.15;98318.80;1721427;81;21619;-73
2022/04/07 07:49:14;;;;;;;8.93;4.92;;;;;;;15.67;50.34;98323.28;1717036;82;20904;-74
2022/04/07 07:51:41;;;;;;;13.28;6.00;;;;;;;15.76;48.76;98312.71;1721290;82;21047;-74
2022/04/07 07:54:08;;;;;;;10.43;5.30;;;;;;;15.83;49.73;98310.60;1736063;81;21601;-73
2022/04/07 07:56:35;;;;;;;8.73;5.05;;;;;;;16.13;49.21;98310.49;1737853;81;21148;-72
2022/04/07 07:59:03;;;;;;;10.88;4.70;;;;;;;16.46;47.17;98308.16;1721669;82;20984;-71
2022/04/07 08:01:30;;;;;;;8.28;4.53;;;;;;;16.62;47.06;98300.95;1720949;82;20899;-72
2022/04/07 08:03:58;;;;;;;16.30;5.08;;;;;;;16.86;45.61;98293.39;1719175;82;21425;-73
2022/04/07 08:06:26;;;;;;;10.82;4.40;;;;;;;17.09;45.42;98298.06;1721990;81;20994;-76
2022/04/07 08:08:54;;;;;;;8.55;4.10;;;;;;;17.29;44.62;98293.00;1739205;80;21235;-74
2022/04/07 08:11:41;;;;;;;12.33;4.28;;;;;;;17.44;43.26;98291.05;1744010;81;21530;-73
2022/04/07 08:14:11;;;;;;;8.30;3.62;;;;;;;17.43;43.00;98297.78;1734661;81;21506;-74
2022/04/07 08:16:40;;;;;;;11.40;3.42;;;;;;;17.50;43.79;98282.55;1718119;82;20979;-73
2022/04/07 08:19:09;;;;;;;11.25;3.58;;;;;;;17.67;42.89;98281.83;1728456;81;20948;-70
2022/04/07 08:21:37;;;;;;;10.90;4.12;;;;;;;17.74;41.86;98272.13;1721932;81;22006;-71
2022/04/07 08:24:05;;;;;;;11.30;4.60;;;;;;;17.79;42.09;98269.56;1702129;82;21523;-76
2022/04/07 08:26:32;;;;;;;9.23;3.98;;;;;;;17.92;42.30;98267.17;1685553;83;21538;-69
2022/04/07 08:28:59;;;;;;;9.23;3.87;;;;;;;18.14;42.92;98255.68;1704935;83;21062;-72
2022/04/07 08:31:26;;;;;;;11.78;4.60;;;;;;;18.46;41.29;98257.05;1700620;83;21590;-70
2022/04/07 08:33:53;;;;;;;9.78;4.00;;;;;;;18.64;40.15;98248.68;1685276;83;21149;-70
2022/04/07 08:36:20;;;;;;;9.25;3.45;;;;;;;18.76;41.00;98248.86;1686889;83;22134;-69
2022/04/07 08:38:47;;;;;;;5.75;2.90;;;;;;;19.00;40.55;98235.47;1687780;83;21052;-68
2022/04/07 08:41:15;;;;;;;4.03;2.75;;;;;;;19.19;38.02;98241.13;1698096;83;21411;-68
2022/04/07 08:43:43;;;;;;;5.80;2.90;;;;;;;19.05;38.84;98244.00;1713785;83;20896;-71
2022/04/07 08:46:12;;;;;;;5.55;3.30;;;;;;;19.06;38.71;98234.45;1702755;83;21268;-72
2022/04/07 08:48:43;;;;;;;5.42;2.80;;;;;;;19.18;38.60;98229.80;1681843;83;21084;-72
2022/04/07 08:51:11;;;;;;;5.10;3.17;;;;;;;19.35;38.03;98228.92;1697057;83;20956;-72
2022/04/07 08:53:39;;;;;;;4.17;2.98;;;;;;;19.56;38.20;98221.08;1705679;83;21518;-70
2022/04/07 08:56:08;;;;;;;7.03;3.08;;;;;;;19.82;37.58;98216.11;1707922;83;21185;-70
2022/04/07 08:58:36;;;;;;;4.28;2.80;;;;;;;19.94;36.36;98215.02;1696947;83;21286;-69
2022/04/07 09:01:03;;;;;;;5.17;3.08;;;;;;;20.00;37.00;98216.16;1682681;84;20860;-70
2022/04/07 09:03:31;;;;;;;5.92;3.20;;;;;;;20.25;35.81;98217.91;1692476;83;21440;-70
2022/04/07 09:06:01;;;;;;;4.00;2.50;;;;;;;20.28;35.66;98215.70;1701163;83;21028;-73
2022/04/07 09:08:38;;;;;;;9.00;3.08;;;;;;;20.22;34.81;98204.84;1698390;83;21561;-78
2022/04/07 09:11:11;;;;;;;16.07;3.20;;;;;;;20.15;35.20;98207.08;1692043;82;22130;-71
2022/04/07 09:13:50;;;;;;;6.15;3.02;;;;;;;20.24;34.84;98201.00;1671025;83;21400;-71
2022/04/07 09:16:20;;;;;;;4.67;2.92;;;;;;;20.34;35.76;98186.18;1669223;83;21001;-72
2022/04/07 09:18:50;;;;;;;7.42;3.15;;;;;;;20.41;34.75;98206.44;1657377;83;22221;-78
2022/04/07 09:21:28;;;;;;;9.88;3.47;;;;;;;20.39;34.52;98189.34;1680169;82;21484;-73
2022/04/07 09:24:00;;;;;;;7.40;3.83;;;;;;;20.40;34.61;98194.31;1697613;82;21840;-74
2022/04/07 09:26:33;;;;;;;7.75;4.42;;;;;;;20.50;34.86;98182.86;1699197;82;21035;-73
2022/04/07 09:29:08;;;;;;;12.18;5.17;;;;;;;20.54;34.29;98183.61;1715318;82;21105;-74
2022/04/07 09:31:46;;;;;;;6.75;4.58;;;;;;;20.50;34.65;98182.86;1657811;84;21577;-74
2022/04/07 09:34:15;;;;;;;10.08;4.37;;;;;;;20.57;33.84;98164.66;1704507;82;21042;-71
2022/04/07 09:36:44;;;;;;;10.40;6.03;;;;;;;20.57;33.67;98173.03;1703361;81;21266;-71
2022/04/07 09:39:16;;;;;;;7.65;5.50;;;;;;;20.50;33.81;98164.74;1647994;84;21522;-69
2022/04/07 09:41:47;;;;;;;12.50;5.70;;;;;;;20.40;33.70;98168.62;1668446;83;20904;-70
2022/04/07 09:44:15;;;;;;;22.95;11.22;;;;;;;20.27;34.70;98149.42;1691997;82;21097;-70
2022/04/07 09:46:45;;;;;;;15.15;6.65;;;;;;;20.25;34.49;98162.98;1651303;82;20964;-73
2022/04/07 09:49:17;;;;;;;9.53;6.08;;;;;;;20.22;34.77;98145.69;1695633;82;23042;-74
2022/04/07 09:51:51;;;;;;;8.23;4.78;;;;;;;20.22;34.53;98143.53;1659782;83;21069;-70
2022/04/07 09:54:27;;;;;;;9.43;5.80;;;;;;;20.21;34.50;98141.95;1675804;83;21063;-70
2022/04/07 09:56:58;;;;;;;10.85;5.72;;;;;;;20.18;34.26;98132.43;1665785;84;21672;-71
2022/04/07 09:59:32;;;;;;;10.93;5.20;;;;;;;20.24;34.58;98134.92;1689448;83;20944;-71
2022/04/07 10:02:05;;;;;;;10.75;6.15;;;;;;;20.40;34.08;98119.85;1669891;81;21061;-70
2022/04/07 10:04:37;;;;;;;12.65;7.53;;;;;;;20.48;33.84;98117.77;1668664;84;20902;-69
2022/04/07 10:07:05;;;;;;;10.95;6.28;;;;;;;20.58;34.23;98109.89;1680008;82;21134;-69
2022/04/07 10:09:36;;;;;;;;;;;;;;;20.75;33.28;98117.24;1678831;81;21591;-69
2022/04/07 10:12:04;;;;;;;14.03;8.20;;;;;;;20.73;33.29;98110.50;1692945;83;20163;-70
2022/04/07 10:14:35;;;;;;;11.35;7.83;;;;;;;20.64;33.47;98104.04;1678515;82;21457;-70
2022/04/07 10:17:05;;;;;;;15.63;8.80;;;;;;;20.65;33.25;98093.07;1680828;82;20938;-70
2022/04/07 10:20:00;;;;;;;11.53;7.25;;;;;;;20.71;33.87;98085.83;1660527;83;20952;-69
2022/04/07 10:23:07;;;;;;;13.70;6.42;;;;;;;20.90;33.36;98082.95;1684216;82;21119;-70
2022/04/07 10:25:43;;;;;;;8.95;5.70;;;;;;;20.87;33.49;98071.84;1676348;82;21131;-70
2022/04/07 10:28:12;;;;;;;23.27;7.45;;;;;;;20.92;32.87;98072.16;1684384;81;21933;-70
2022/04/07 10:30:51;;;;;;;10.80;6.25;;;;;;;20.83;33.41;98070.50;1674338;83;21568;-71
2022/04/07 10:33:42;;;;;;;10.65;5.25;;;;;;;20.89;32.64;98069.42;1668400;83;20931;-70
2022/04/07 10:36:22;;;;;;;12.05;5.12;;;;;;;20.87;32.65;98071.24;1681262;82;20995;-70
2022/04/07 10:38:52;;;;;;;11.08;7.33;;;;;;;20.80;31.92;98064.37;1684355;81;21060;-70
2022/04/07 10:41:40;;;;;;;12.15;5.25;;;;;;;20.81;31.94;98062.37;1661736;83;21177;-69
2022/04/07 10:44:23;;;;;;;9.93;6.25;;;;;;;20.83;32.25;98052.98;1714070;81;21502;-70
2022/04/07 10:47:06;;;;;;;9.53;5.15;;;;;;;20.85;32.25;98063.11;1698104;81;20987;-70
2022/04/07 10:49:36;;;;;;;10.93;5.60;;;;;;;21.04;31.21;98062.44;1653034;85;21087;-70
2022/04/07 10:52:07;;;;;;;9.45;4.55;;;;;;;21.04;31.38;98049.27;1641242;85;21014;-70
2022/04/07 10:54:38;;;;;;;10.90;6.55;;;;;;;21.07;31.62;98051.83;1655346;85;21386;-70
2022/04/07 10:57:12;;;;;;;8.98;4.55;;;;;;;21.15;31.36;98062.27;1628401;85;21173;-70
2022/04/07 10:59:49;;;;;;;7.75;5.05;;;;;;;21.13;31.09;98049.34;1624903;85;21012;-67
2022/04/07 11:02:20;;;;;;;8.53;4.47;;;;;;;21.21;30.91;98039.08;1654411;84;22274;-67
2022/04/07 11:05:10;;;;;;;10.23;5.15;;;;;;;21.29;30.24;98043.34;1616721;85;21093;-68
2022/04/07 11:07:55;;;;;;;7.17;4.78;;;;;;;21.36;30.44;98042.44;1665335;85;21059;-67
2022/04/07 11:10:48;;;;;;;7.72;4.87;;;;;;;21.47;29.71;98068.14;1641278;85;21584;-68
2022/04/07 11:13:46;;;;;;;9.53;4.62;;;;;;;21.40;29.40;98050.12;1649349;84;21492;-69
2022/04/07 11:16:36;;;;;;;8.70;4.17;;;;;;;21.28;29.35;98041.77;1656788;85;20896;-65
2022/04/07 11:19:36;;;;;;;7.00;3.45;;;;;;;21.36;30.11;98024.30;1663337;82;20947;-77
2022/04/07 11:22:15;;;;;;;8.33;4.05;;;;;;;21.50;29.17;98019.83;1689349;83;21139;-69
2022/04/07 11:24:47;;;;;;;12.28;3.95;;;;;;;21.42;29.58;98033.73;1717168;81;21048;-67
2022/04/07 11:27:44;;;;;;;9.10;3.75;;;;;;;21.29;29.38;98012.64;1658315;82;21027;-66
2022/04/07 11:30:10;;;;;;;5.72;4.03;;;;;;;21.35;29.23;98029.69;1712487;81;21034;-69
2022/04/07 11:33:26;;;;;;;7.35;3.65;;;;;;;21.48;29.75;98015.89;1720541;81;22233;-69
2022/04/07 11:36:07;;;;;;;6.90;4.22;;;;;;;21.64;29.29;98008.42;1711936;82;21906;-70
2022/04/07 11:38:39;;;;;;;4.85;3.55;;;;;;;21.72;29.16;98000.09;1729422;81;20858;-69
2022/04/07 11:41:14;;;;;;;57.55;33.23;;;;;;;21.81;28.27;98014.89;1689305;82;21083;-68
2022/04/07 11:43:50;;;;;;;13.48;8.05;;;;;;;21.65;28.96;98005.02;1716612;81;21486;-73
2022/04/07 11:46:30;;;;;;;11.57;7.45;;;;;;;21.52;28.91;97997.86;1723190;82;20998;-75
2022/04/07 11:48:58;;;;;;;5.75;3.85;;;;;;;21.35;28.88;97994.80;1694985;82;21132;-68
2022/04/07 11:51:26;;;;;;;8.43;5.55;;;;;;;21.22;29.03;97992.43;1681653;83;20987;-67